Time;durP1;ratioP1;P1;durP2;ratioP2;P2;SDS_P1;SDS_P2;PMS_P1;PMS_P2;Temp;Humidity;BMP_temperature;BMP_pressure;BME280_temperature;BME280_humidity;BME280_pressure;Samples;Min_cycle;Max_cycle;Signal;HPM_P1;HPM_P2
2024/01/25 00:01:11;;;;;;;6.90;1.30;;;10.20;86.80;;;;;;6212900;23;20001;-81
2024/01/25 00:03:43;;;;;;;6.40;1.40;;;10.20;86.70;;;;;;6213090;23;20000;-80
2024/01/25 00:06:09;;;;;;;5.85;1.38;;;10.30;86.80;;;;;;6187579;23;19989;-82
2024/01/25 00:08:38;;;;;;;5.55;1.60;;;10.20;86.80;;;;;;6207689;23;20004;-82
2024/01/25 00:11:06;;;;;;;5.95;1.20;;;10.00;86.70;;;;;;6187651;23;20054;-81
2024/01/25 00:13:39;;;;;;;4.90;1.38;;;10.20;86.80;;;;;;6162947;23;20024;-81
2024/01/25 00:16:08;;;;;;;5.15;1.98;;;10.30;86.90;;;;;;6187628;23;19996;-84
2024/01/25 00:18:34;;;;;;;5.70;1.40;;;10.20;86.80;;;;;;6212870;23;20028;-81
2024/01/25 00:21:03;;;;;;;5.50;1.55;;;10.20;86.70;;;;;;6188154;23;19990;-81
2024/01/25 00:23:30;;;;;;;5.72;1.60;;;10.20;86.80;;;;;;6187974;23;20007;-83
2024/01/25 00:25:59;;;;;;;4.43;1.40;;;10.20;86.80;;;;;;6187761;23;19996;-83
2024/01/25 00:28:28;;;;;;;6.40;1.70;;;10.20;86.80;;;;;;6212060;23;19990;-81
2024/01/25 00:31:16;;;;;;;5.28;1.45;;;10.40;86.90;;;;;;6187476;23;19996;-81
2024/01/25 00:33:42;;;;;;;5.60;1.50;;;10.20;86.80;;;;;;6167306;23;20011;-83
2024/01/25 00:36:11;;;;;;;7.10;1.88;;;10.20;86.80;;;;;;6212134;23;20012;-80
2024/01/25 00:38:38;;;;;;;9.23;1.98;;;10.30;86.90;;;;;;6163147;23;20001;-81
2024/01/25 00:41:14;;;;;;;5.20;1.63;;;10.20;86.80;;;;;;6163527;23;19993;-81
2024/01/25 00:43:43;;;;;;;4.40;1.23;;;10.20;86.80;;;;;;6163964;23;20019;-82
2024/01/25 00:46:33;;;;;;;4.63;1.13;;;10.20;86.80;;;;;;6162838;23;19997;-81
2024/01/25 00:49:01;;;;;;;6.97;1.70;;;10.10;86.70;;;;;;6187402;23;19997;-83
2024/01/25 00:51:29;;;;;;;6.28;1.60;;;10.20;86.80;;;;;;6162663;23;19997;-81
2024/01/25 00:53:57;;;;;;;5.00;1.52;;;10.10;86.70;;;;;;6186735;23;19992;-81
2024/01/25 00:56:28;;;;;;;3.63;1.45;;;10.30;86.80;;;;;;6186483;23;20061;-81
2024/01/25 00:58:57;;;;;;;7.82;1.77;;;10.20;86.80;;;;;;6212752;23;20007;-83
2024/01/25 01:01:26;;;;;;;7.05;1.77;;;10.10;86.70;;;;;;6189564;23;19993;-83
2024/01/25 01:03:58;;;;;;;6.30;1.70;;;10.20;86.80;;;;;;6214662;23;19989;-82
2024/01/25 01:06:27;;;;;;;6.20;1.38;;;10.30;86.80;;;;;;6165409;23;20012;-82
2024/01/25 01:08:59;;;;;;;7.40;1.48;;;10.20;86.80;;;;;;6213954;23;19986;-82
2024/01/25 01:11:25;;;;;;;5.03;1.50;;;10.30;86.90;;;;;;6189939;23;19993;-80
2024/01/25 01:13:52;;;;;;;6.35;1.70;;;10.20;86.80;;;;;;6214506;23;19992;-81
2024/01/25 01:16:21;;;;;;;6.75;1.30;;;10.40;87.00;;;;;;6189042;23;20059;-81
2024/01/25 01:18:49;;;;;;;7.50;1.73;;;10.20;86.80;;;;;;6164611;23;19997;-81
2024/01/25 01:21:18;;;;;;;4.10;1.33;;;10.20;87.10;;;;;;6164513;23;19986;-82
2024/01/25 01:23:46;;;;;;;6.88;1.60;;;10.30;86.90;;;;;;6186556;23;19993;-82
2024/01/25 01:26:15;;;;;;;4.93;1.30;;;10.30;86.80;;;;;;6189159;23;19993;-81
2024/01/25 01:28:44;;;;;;;5.22;1.40;;;10.20;86.80;;;;;;6188757;23;20031;-82
2024/01/25 01:31:12;;;;;;;4.25;1.20;;;10.20;86.80;;;;;;6214059;23;19985;-81
2024/01/25 01:33:49;;;;;;;5.63;1.50;;;10.20;86.80;;;;;;6214486;23;20068;-81
2024/01/25 01:36:15;;;;;;;5.10;1.38;;;10.20;86.80;;;;;;6188567;23;19989;-82
2024/01/25 01:38:44;;;;;;;4.88;1.33;;;10.20;86.80;;;;;;6188637;23;20005;-82
2024/01/25 01:41:12;;;;;;;6.03;1.30;;;10.30;86.90;;;;;;6213932;23;19986;-83
2024/01/25 01:43:40;;;;;;;6.05;1.67;;;10.30;86.80;;;;;;6181293;23;19993;-82
2024/01/25 01:46:36;;;;;;;6.47;1.70;;;10.30;86.80;;;;;;6188158;23;19989;-82
2024/01/25 01:49:12;;;;;;;4.78;1.23;;;10.30;86.80;;;;;;6187687;23;19989;-80
2024/01/25 01:51:43;;;;;;;4.68;1.38;;;10.20;86.80;;;;;;6190392;23;20004;-83
2024/01/25 01:54:10;;;;;;;6.10;1.85;;;10.20;86.80;;;;;;6188486;23;19997;-82
2024/01/25 01:56:39;;;;;;;5.47;1.42;;;10.30;86.80;;;;;;6187703;23;19989;-81
2024/01/25 01:59:10;;;;;;;5.90;1.45;;;10.10;86.60;;;;;;6140929;23;20023;-82
2024/01/25 02:01:39;;;;;;;6.20;1.50;;;10.20;86.70;;;;;;6188623;23;19992;-83
2024/01/25 02:04:07;;;;;;;6.18;1.55;;;10.30;86.90;;;;;;6163211;23;20005;-82
2024/01/25 02:06:35;;;;;;;4.70;1.40;;;10.10;86.70;;;;;;6188235;23;20004;-81
2024/01/25 02:09:02;;;;;;;6.60;1.45;;;9.60;86.50;;;;;;6187981;23;19993;-82
2024/01/25 02:11:29;;;;;;;5.03;1.40;;;10.20;87.30;;;;;;6187531;23;20040;-81
2024/01/25 02:13:59;;;;;;;5.50;1.50;;;10.10;86.80;;;;;;6164044;23;19997;-81
2024/01/25 02:16:26;;;;;;;4.57;1.17;;;10.30;86.90;;;;;;6187731;23;19989;-82
2024/01/25 02:18:57;;;;;;;6.07;1.83;;;10.20;86.80;;;;;;6214185;23;20017;-80
2024/01/25 02:21:23;;;;;;;4.72;1.58;;;10.10;86.70;;;;;;6188672;23;20039;-81
2024/01/25 02:23:52;;;;;;;4.32;1.30;;;10.20;86.80;;;;;;6188643;23;20004;-83
2024/01/25 02:26:42;;;;;;;4.32;1.15;;;10.30;86.90;;;;;;6188805;23;19985;-81
2024/01/25 02:29:09;;;;;;;6.25;1.35;;;10.20;86.80;;;;;;6188272;23;20013;-83
2024/01/25 02:31:35;;;;;;;4.97;1.45;;;10.20;86.90;;;;;;6189033;23;20049;-81
2024/01/25 02:34:01;;;;;;;4.85;1.30;;;10.20;86.80;;;;;;6163213;23;20020;-82
2024/01/25 02:36:27;;;;;;;4.93;1.50;;;10.30;86.90;;;;;;6188758;23;19996;-79
2024/01/25 02:38:56;;;;;;;5.00;1.10;;;10.30;86.90;;;;;;6163872;23;20001;-80
2024/01/25 02:41:22;;;;;;;5.25;1.45;;;10.20;86.90;;;;;;6187978;23;19989;-81
2024/01/25 02:43:48;;;;;;;4.60;1.50;;;10.30;86.90;;;;;;6162998;23;20000;-81
2024/01/25 02:46:17;;;;;;;3.55;1.20;;;10.20;86.80;;;;;;6213736;23;20009;-81
2024/01/25 02:48:47;;;;;;;4.90;1.60;;;10.40;86.90;;;;;;6189486;23;19993;-81
2024/01/25 02:51:14;;;;;;;5.10;1.38;;;10.10;86.80;;;;;;6188586;23;19989;-81
2024/01/25 02:53:41;;;;;;;5.72;1.45;;;10.30;86.90;;;;;;6213784;23;20016;-81
2024/01/25 02:56:10;;;;;;;5.10;1.13;;;10.30;86.90;;;;;;6212691;23;19985;-82
2024/01/25 02:58:39;;;;;;;3.92;1.23;;;10.30;86.80;;;;;;6186634;23;20001;-84
2024/01/25 03:01:06;;;;;;;4.93;1.50;;;10.20;86.80;;;;;;6187289;23;19989;-82
2024/01/25 03:03:32;;;;;;;6.88;1.60;;;10.20;86.80;;;;;;6188198;23;19989;-81
2024/01/25 03:05:58;;;;;;;5.57;1.65;;;10.20;86.80;;;;;;6188148;23;19986;-81
2024/01/25 03:08:25;;;;;;;4.18;1.20;;;10.30;86.90;;;;;;6188136;23;20017;-81
2024/01/25 03:10:52;;;;;;;6.13;1.60;;;10.20;86.80;;;;;;6187132;23;19993;-81
2024/01/25 03:13:18;;;;;;;5.30;1.55;;;10.30;86.90;;;;;;6163882;23;20019;-82
2024/01/25 03:15:46;;;;;;;4.90;1.38;;;10.20;86.90;;;;;;6187762;23;19989;-80
2024/01/25 03:18:14;;;;;;;4.82;1.30;;;10.30;86.90;;;;;;6187856;23;20035;-82
2024/01/25 03:20:42;;;;;;;4.20;1.10;;;10.30;86.90;;;;;;6187533;23;20041;-80
2024/01/25 03:23:10;;;;;;;4.50;1.23;;;10.30;86.90;;;;;;6187649;23;19993;-81
2024/01/25 03:25:41;;;;;;;4.47;1.25;;;10.20;86.90;;;;;;6187953;23;19989;-81
2024/01/25 03:28:13;;;;;;;3.83;1.23;;;10.30;86.90;;;;;;6213552;23;20019;-82
2024/01/25 03:30:40;;;;;;;4.90;0.98;;;10.30;86.90;;;;;;6188525;23;20009;-82
2024/01/25 03:33:06;;;;;;;4.63;1.40;;;10.30;86.90;;;;;;6163175;23;19989;-82
2024/01/25 03:35:33;;;;;;;4.40;1.20;;;10.30;86.90;;;;;;6187469;23;20044;-81
2024/01/25 03:38:02;;;;;;;5.00;1.40;;;10.20;86.80;;;;;;6187500;23;20004;-84
2024/01/25 03:40:29;;;;;;;6.00;1.40;;;10.40;86.90;;;;;;6212127;23;20013;-81
2024/01/25 03:43:16;;;;;;;6.05;1.40;;;10.30;86.90;;;;;;6187435;23;20000;-81
2024/01/25 03:45:42;;;;;;;4.13;1.20;;;10.30;86.90;;;;;;6188248;23;20010;-82
2024/01/25 03:48:09;;;;;;;4.28;1.33;;;10.20;86.80;;;;;;6213315;23;19994;-82
2024/01/25 03:50:35;;;;;;;7.35;1.20;;;10.30;86.80;;;;;;6163724;23;20660;-81
2024/01/25 03:53:01;;;;;;;3.50;1.30;;;10.20;86.90;;;;;;6187666;23;19989;-81
2024/01/25 03:55:32;;;;;;;5.00;1.65;;;10.40;87.00;;;;;;6187451;23;19993;-81
2024/01/25 03:57:58;;;;;;;4.97;1.40;;;10.30;86.90;;;;;;6187492;23;20011;-81
2024/01/25 04:00:26;;;;;;;4.25;1.33;;;10.30;86.90;;;;;;6211948;23;19985;-81
2024/01/25 04:02:54;;;;;;;5.47;1.20;;;10.20;86.90;;;;;;6187472;23;19997;-80
2024/01/25 04:05:31;;;;;;;4.35;1.10;;;10.30;86.90;;;;;;6162554;23;20005;-81
2024/01/25 04:07:56;;;;;;;4.80;1.52;;;10.30;87.00;;;;;;6185576;23;19993;-81
2024/01/25 04:10:25;;;;;;;3.67;1.17;;;10.20;86.90;;;;;;6187424;23;20012;-81
2024/01/25 04:12:52;;;;;;;6.15;1.48;;;10.30;86.90;;;;;;6162999;23;19997;-81
2024/01/25 04:15:19;;;;;;;5.43;1.33;;;10.20;86.90;;;;;;6138153;23;20005;-82
2024/01/25 04:17:47;;;;;;;4.45;1.20;;;10.30;86.90;;;;;;6188121;23;20001;-82
2024/01/25 04:20:15;;;;;;;7.05;1.50;;;10.30;86.90;;;;;;6212721;23;19985;-82
2024/01/25 04:22:43;;;;;;;4.68;1.20;;;10.40;86.70;;;;;;6163057;23;20004;-83
2024/01/25 04:25:09;;;;;;;4.38;1.13;;;10.20;86.90;;;;;;6212710;23;20060;-82
2024/01/25 04:27:40;;;;;;;4.45;1.40;;;10.20;86.90;;;;;;6187747;23;19993;-81
2024/01/25 04:30:08;;;;;;;3.47;1.10;;;10.20;86.90;;;;;;6213356;23;19989;-83
2024/01/25 04:32:34;;;;;;;3.38;1.13;;;10.30;87.00;;;;;;6165282;23;20061;-83
2024/01/25 04:35:04;;;;;;;3.92;1.23;;;10.30;87.40;;;;;;6215193;23;20001;-82
2024/01/25 04:38:00;;;;;;;4.30;1.10;;;10.30;87.00;;;;;;6190001;23;20000;-82
2024/01/25 04:40:30;;;;;;;4.18;1.17;;;10.20;86.90;;;;;;6190114;23;20009;-83
2024/01/25 04:42:59;;;;;;;4.65;1.20;;;10.30;87.00;;;;;;6189650;23;19989;-82
2024/01/25 04:45:25;;;;;;;4.25;1.10;;;10.10;86.80;;;;;;6165253;23;19993;-81
2024/01/25 04:47:52;;;;;;;3.53;1.00;;;10.20;86.90;;;;;;6165225;23;20039;-81
2024/01/25 04:50:21;;;;;;;4.55;1.20;;;10.30;86.90;;;;;;6165100;23;20004;-83
2024/01/25 04:52:50;;;;;;;4.22;1.27;;;10.20;86.90;;;;;;6189604;23;19989;-81
2024/01/25 04:55:17;;;;;;;4.70;1.17;;;11.00;87.30;;;;;;6187914;23;19993;-83
2024/01/25 04:57:47;;;;;;;5.30;1.50;;;10.30;87.00;;;;;;6215396;23;19997;-82
2024/01/25 05:00:20;;;;;;;6.60;1.50;;;10.20;86.90;;;;;;6197747;23;19985;-83
2024/01/25 05:02:46;;;;;;;4.65;1.40;;;10.20;86.90;;;;;;6189480;23;20045;-82
2024/01/25 05:05:15;;;;;;;4.00;1.35;;;10.30;87.00;;;;;;6164713;23;19986;-82
2024/01/25 05:07:42;;;;;;;4.20;1.20;;;10.30;87.00;;;;;;6165292;23;20187;-81
2024/01/25 05:10:16;;;;;;;5.32;1.45;;;10.20;86.90;;;;;;6165145;23;20008;-83
2024/01/25 05:12:47;;;;;;;4.28;1.35;;;10.40;87.00;;;;;;6189676;23;19985;-82
2024/01/25 05:15:19;;;;;;;4.57;1.20;;;10.30;87.00;;;;;;6213913;23;19990;-82
2024/01/25 05:17:47;;;;;;;;;;;10.20;86.90;;;;;;6190290;23;20001;-82
2024/01/25 05:25:33;;;;;;;3.90;1.15;;;10.30;87.00;;;;;;6192922;23;20005;-80
2024/01/25 05:28:02;;;;;;;3.83;1.10;;;10.30;86.90;;;;;;6185926;23;19989;-81
2024/01/25 05:30:27;;;;;;;3.65;1.10;;;10.10;86.90;;;;;;6161638;23;20057;-81
2024/01/25 05:33:22;;;;;;;2.88;1.00;;;10.30;87.00;;;;;;6211489;23;20104;-81
2024/01/25 05:35:57;;;;;;;3.85;1.15;;;10.20;86.90;;;;;;6182050;23;19996;-80
2024/01/25 05:41:55;;;;;;;6.05;1.50;;;10.20;86.90;;;;;;6122184;23;20034;-80
2024/01/25 05:44:52;;;;;;;3.35;1.10;;;10.30;87.00;;;;;;6093508;23;19995;-81
2024/01/25 05:47:22;;;;;;;5.05;1.27;;;10.10;86.90;;;;;;6072934;23;20014;-81
2024/01/25 05:52:26;;;;;;;3.47;1.15;;;10.30;87.00;;;;;;6208596;23;20096;-81
2024/01/25 05:54:52;;;;;;;4.13;1.08;;;10.30;87.00;;;;;;6158649;23;20005;-78
2024/01/25 05:57:18;;;;;;;4.43;1.15;;;10.30;87.00;;;;;;6175486;23;20016;-79
2024/01/25 05:59:45;;;;;;;3.40;1.02;;;10.20;86.90;;;;;;6209126;23;20020;-80
2024/01/25 06:02:11;;;;;;;4.95;1.20;;;10.20;86.90;;;;;;6204150;23;19985;-80
2024/01/25 06:04:37;;;;;;;4.18;1.13;;;10.30;87.10;;;;;;6187550;23;20000;-81
2024/01/25 06:07:03;;;;;;;5.75;1.38;;;9.70;86.70;;;;;;6186891;23;19989;-79
2024/01/25 06:09:29;;;;;;;4.63;1.13;;;10.30;86.80;;;;;;6187235;23;19993;-81
2024/01/25 06:11:54;;;;;;;5.93;1.33;;;10.30;87.00;;;;;;6187420;23;19996;-80
2024/01/25 06:14:20;;;;;;;3.83;1.30;;;10.20;87.00;;;;;;6187294;23;20025;-80
2024/01/25 06:16:47;;;;;;;3.03;1.05;;;10.30;87.50;;;;;;6186175;23;20005;-79
2024/01/25 06:19:13;;;;;;;3.75;1.10;;;10.30;87.00;;;;;;6158436;23;20020;-81
2024/01/25 06:21:38;;;;;;;3.55;1.13;;;10.30;87.00;;;;;;6211079;23;19982;-80
2024/01/25 06:24:12;;;;;;;3.00;1.00;;;10.40;87.10;;;;;;6187975;23;20064;-81
2024/01/25 06:26:42;;;;;;;3.25;1.08;;;10.10;86.90;;;;;;6210611;23;20045;-82
2024/01/25 06:29:11;;;;;;;3.53;0.98;;;10.90;87.40;;;;;;6187214;23;19993;-83
2024/01/25 07:00:08;;;;;;;4.53;1.30;;;10.30;86.90;;;;;;6150916;23;20005;-84
2024/01/25 07:23:17;;;;;;;6.07;1.65;;;10.30;87.00;;;;;;6193921;23;20001;-84
2024/01/25 08:22:43;;;;;;;3.88;0.98;;;10.50;86.20;;;;;;6158846;23;20005;-84
2024/01/25 08:53:39;;;;;;;3.33;1.00;;;10.70;85.70;;;;;;6150294;23;20023;-84
2024/01/25 08:56:06;;;;;;;6.32;1.27;;;10.60;85.60;;;;;;6211285;23;20037;-85
2024/01/25 08:58:34;;;;;;;4.00;1.02;;;10.60;85.50;;;;;;6205920;23;19996;-85
2024/01/25 09:01:09;;;;;;;5.40;1.42;;;10.80;85.60;;;;;;6214718;23;19990;-87
2024/01/25 09:16:37;;;;;;;3.65;1.10;;;10.70;85.30;;;;;;6191307;23;20032;-84
2024/01/25 09:19:03;;;;;;;3.35;0.95;;;11.30;85.70;;;;;;6141210;23;20004;-84
2024/01/25 09:21:33;;;;;;;4.22;1.10;;;10.70;85.30;;;;;;6209164;23;19988;-84
2024/01/25 09:24:01;;;;;;;4.60;1.27;;;10.70;85.30;;;;;;6190552;23;20008;-84
2024/01/25 09:26:28;;;;;;;3.75;1.20;;;10.70;85.30;;;;;;6142831;23;19993;-84
2024/01/25 09:28:55;;;;;;;5.07;1.67;;;10.70;85.30;;;;;;6191281;23;20036;-84
2024/01/25 09:31:24;;;;;;;4.57;1.10;;;10.70;85.30;;;;;;6216654;23;19981;-84
2024/01/25 09:33:54;;;;;;;3.65;1.10;;;10.60;85.20;;;;;;6191126;23;19992;-84
2024/01/25 09:36:21;;;;;;;5.00;1.15;;;10.70;85.40;;;;;;6191266;23;19981;-84
2024/01/25 09:38:51;;;;;;;3.85;1.23;;;10.70;85.30;;;;;;6214931;23;19992;-84
2024/01/25 09:41:21;;;;;;;3.30;1.05;;;10.70;85.30;;;;;;6191319;23;19989;-84
2024/01/25 09:43:48;;;;;;;3.58;1.00;;;10.70;85.30;;;;;;6189531;23;19989;-84
2024/01/25 09:46:17;;;;;;;3.88;1.00;;;10.70;85.30;;;;;;6190915;23;20009;-84
2024/01/25 09:48:47;;;;;;;3.35;1.00;;;10.60;85.30;;;;;;6191335;23;20000;-84
2024/01/25 09:51:15;;;;;;;6.57;1.30;;;10.60;85.20;;;;;;6189557;23;20012;-84
2024/01/25 09:53:45;;;;;;;3.30;1.00;;;10.70;85.30;;;;;;6214131;23;19989;-85
2024/01/25 09:56:13;;;;;;;4.03;1.00;;;10.60;85.30;;;;;;6190932;23;19985;-84
2024/01/25 09:58:45;;;;;;;2.00;0.80;;;10.50;85.20;;;;;;6211492;23;20066;-84
2024/01/25 10:01:17;;;;;;;2.85;1.08;;;10.70;85.30;;;;;;6164695;23;19997;-84
2024/01/25 10:16:40;;;;;;;3.60;1.00;;;10.60;85.40;;;;;;6165670;23;20036;-84
2024/01/25 10:19:09;;;;;;;3.53;1.00;;;10.60;85.40;;;;;;6190326;23;19989;-85
2024/01/25 10:21:37;;;;;;;4.30;1.27;;;10.60;85.40;;;;;;6200465;23;19977;-85
2024/01/25 10:24:04;;;;;;;2.97;1.13;;;10.60;85.40;;;;;;6190092;23;20000;-85
2024/01/25 10:26:36;;;;;;;3.58;1.00;;;10.60;85.40;;;;;;6191394;23;19985;-84
2024/01/25 10:29:02;;;;;;;3.83;1.00;;;10.70;85.50;;;;;;6190597;23;19985;-85
2024/01/25 10:31:30;;;;;;;2.85;0.90;;;10.60;85.50;;;;;;6165537;23;19989;-85
2024/01/25 10:33:59;;;;;;;3.38;0.95;;;10.70;85.50;;;;;;6190594;23;20048;-85
2024/01/25 10:36:27;;;;;;;3.85;1.02;;;10.60;85.40;;;;;;6190353;23;19985;-85
2024/01/25 10:38:55;;;;;;;4.80;1.30;;;10.60;85.30;;;;;;6189958;23;19997;-85
2024/01/25 10:51:44;;;;;;;3.80;1.10;;;10.80;85.20;;;;;;6179619;23;20009;-85
2024/01/25 10:54:24;;;;;;;4.07;1.10;;;10.80;85.10;;;;;;6213968;23;20009;-85
2024/01/25 10:56:53;;;;;;;3.58;1.30;;;10.70;85.00;;;;;;6215812;23;19988;-85
2024/01/25 10:59:25;;;;;;;3.22;0.93;;;10.90;85.10;;;;;;6212292;23;20003;-86
2024/01/25 11:01:57;;;;;;;2.45;0.90;;;10.90;85.00;;;;;;6215138;23;19977;-85
2024/01/25 11:04:25;;;;;;;4.30;0.98;;;10.90;85.00;;;;;;6166408;23;20032;-85
2024/01/25 11:06:53;;;;;;;3.55;1.10;;;10.90;85.00;;;;;;6215820;23;19981;-85
2024/01/25 11:09:21;;;;;;;3.35;1.25;;;10.90;84.90;;;;;;6215844;23;19992;-84
2024/01/25 11:11:49;;;;;;;2.92;0.88;;;10.80;84.90;;;;;;6165745;23;20000;-84
2024/01/25 11:14:17;;;;;;;2.95;1.00;;;10.90;84.90;;;;;;6189719;23;20004;-84
2024/01/25 11:16:46;;;;;;;4.65;1.30;;;10.90;84.90;;;;;;6165869;23;20009;-85
2024/01/25 11:19:23;;;;;;;2.78;0.98;;;10.90;84.90;;;;;;6190336;23;19992;-85
2024/01/25 11:21:51;;;;;;;4.93;1.15;;;11.00;84.80;;;;;;6215904;23;19977;-84
2024/01/25 11:24:22;;;;;;;3.13;1.00;;;10.90;84.70;;;;;;6214443;23;19981;-85
2024/01/25 11:26:53;;;;;;;2.70;0.88;;;10.90;84.70;;;;;;6214527;23;19992;-85
2024/01/25 11:29:22;;;;;;;3.03;0.95;;;11.00;84.70;;;;;;6190393;23;19985;-85
2024/01/25 11:31:51;;;;;;;4.40;1.10;;;10.90;84.70;;;;;;6190322;23;19989;-84
2024/01/25 11:34:20;;;;;;;4.22;1.10;;;10.90;84.70;;;;;;6190084;23;20300;-85
2024/01/25 11:36:48;;;;;;;4.03;1.00;;;10.90;84.70;;;;;;6190045;23;19996;-85
2024/01/25 11:39:17;;;;;;;3.03;0.90;;;10.90;84.70;;;;;;6189921;23;20041;-85
2024/01/25 11:41:47;;;;;;;3.50;0.98;;;10.90;84.70;;;;;;6190072;23;19985;-85
2024/01/25 11:44:16;;;;;;;3.47;1.15;;;11.00;84.70;;;;;;6166126;23;19985;-85
2024/01/25 11:46:46;;;;;;;3.28;0.90;;;10.80;84.60;;;;;;6189435;23;20003;-85
2024/01/25 11:49:14;;;;;;;3.88;1.05;;;10.90;84.70;;;;;;6190164;23;19985;-85
2024/01/25 11:51:42;;;;;;;4.85;1.20;;;11.00;84.70;;;;;;6165743;23;19996;-85
2024/01/25 11:54:10;;;;;;;3.78;0.93;;;10.90;84.70;;;;;;6189893;23;19997;-85
2024/01/25 11:56:40;;;;;;;2.50;0.80;;;10.90;84.70;;;;;;6166235;23;19991;-85
2024/01/25 11:59:06;;;;;;;3.03;1.02;;;10.90;84.70;;;;;;6189855;23;19981;-85
2024/01/25 12:01:37;;;;;;;2.90;1.05;;;11.00;84.70;;;;;;6215180;23;19977;-85
2024/01/25 12:04:04;;;;;;;3.50;1.17;;;10.90;84.60;;;;;;6189718;23;19981;-85
2024/01/25 12:06:31;;;;;;;4.28;0.90;;;11.00;84.60;;;;;;6186289;23;19996;-85
2024/01/25 12:09:08;;;;;;;2.05;0.95;;;11.00;84.50;;;;;;6186816;23;20000;-85
2024/01/25 12:11:34;;;;;;;5.00;1.20;;;11.10;84.40;;;;;;6189955;23;20008;-85
2024/01/25 12:14:03;;;;;;;4.28;1.08;;;11.10;84.20;;;;;;6214919;23;20012;-85
2024/01/25 12:16:31;;;;;;;3.33;1.10;;;11.40;84.30;;;;;;6186780;23;19985;-85
2024/01/25 12:19:09;;;;;;;3.10;0.93;;;11.10;84.00;;;;;;6215324;23;19993;-85
2024/01/25 12:21:47;;;;;;;1.92;0.88;;;11.10;83.90;;;;;;6190063;23;20032;-85
2024/01/25 12:24:21;;;;;;;3.70;1.13;;;11.20;83.90;;;;;;6189728;23;20008;-85
2024/01/25 12:26:52;;;;;;;3.20;0.90;;;11.20;83.90;;;;;;6165573;23;19992;-85
2024/01/25 12:29:19;;;;;;;;;;;11.20;83.90;;;;;;6188672;23;19985;-85
2024/01/25 12:31:50;;;;;;;3.58;0.82;;;11.20;83.90;;;;;;6188638;23;19915;-85
2024/01/25 12:34:28;;;;;;;4.50;1.23;;;12.20;84.40;;;;;;6215219;23;19985;-85
2024/01/25 12:36:59;;;;;;;2.90;1.10;;;11.20;83.80;;;;;;6191093;23;19986;-84
2024/01/25 12:39:28;;;;;;;1.85;0.90;;;11.10;83.70;;;;;;6215167;23;20033;-85
2024/01/25 12:41:55;;;;;;;3.28;0.90;;;11.20;83.80;;;;;;6188969;23;19986;-85
2024/01/25 12:44:22;;;;;;;2.80;0.90;;;11.10;83.70;;;;;;6188350;23;19993;-86
2024/01/25 12:46:49;;;;;;;3.67;1.30;;;11.10;83.80;;;;;;6165648;23;19988;-85
2024/01/25 12:49:22;;;;;;;3.35;1.02;;;11.10;83.90;;;;;;6189763;23;20009;-85
2024/01/25 12:51:51;;;;;;;2.88;0.90;;;11.00;83.90;;;;;;6165120;23;20000;-85
2024/01/25 12:54:17;;;;;;;2.63;1.00;;;11.00;84.00;;;;;;6190477;23;20009;-85
2024/01/25 12:56:45;;;;;;;2.72;0.82;;;11.10;84.10;;;;;;6216105;23;19989;-84
2024/01/25 12:59:13;;;;;;;1.98;0.85;;;11.10;84.20;;;;;;6214960;23;19985;-85
2024/01/25 13:01:43;;;;;;;2.03;0.80;;;11.00;84.20;;;;;;6214578;23;19977;-85
2024/01/25 13:04:11;;;;;;;2.88;1.00;;;11.00;84.20;;;;;;6191627;23;19993;-85
2024/01/25 13:06:39;;;;;;;3.05;1.00;;;11.00;84.20;;;;;;6189996;23;20012;-85
2024/01/25 13:09:08;;;;;;;2.92;1.00;;;11.00;84.20;;;;;;6190758;23;19989;-84
2024/01/25 13:11:44;;;;;;;2.50;1.10;;;11.70;84.60;;;;;;6191314;23;19989;-85
2024/01/25 13:14:11;;;;;;;2.88;1.00;;;11.00;84.30;;;;;;6189410;23;19996;-85
2024/01/25 13:16:38;;;;;;;2.28;1.00;;;10.90;84.20;;;;;;6167062;23;19985;-86
2024/01/25 13:19:05;;;;;;;2.60;0.90;;;11.00;84.20;;;;;;6191285;23;19985;-85
2024/01/25 13:21:35;;;;;;;3.80;1.00;;;11.00;84.30;;;;;;6191068;23;20036;-85
2024/01/25 13:24:02;;;;;;;3.42;1.10;;;11.10;84.30;;;;;;6191270;23;20001;-85
2024/01/25 13:26:28;;;;;;;3.50;1.15;;;11.00;84.30;;;;;;6191262;23;19997;-85
2024/01/25 13:28:55;;;;;;;3.53;1.30;;;11.00;84.40;;;;;;6215479;23;20000;-85
2024/01/25 13:31:24;;;;;;;3.05;0.95;;;11.00;84.40;;;;;;6215966;23;19992;-85
2024/01/25 13:33:56;;;;;;;2.60;0.90;;;11.10;84.60;;;;;;6214945;23;20037;-85
2024/01/25 13:36:22;;;;;;;3.22;1.10;;;11.00;84.60;;;;;;6191342;23;19985;-85
2024/01/25 13:38:51;;;;;;;3.15;0.90;;;11.10;84.70;;;;;;6216592;23;20004;-85
2024/01/25 13:41:21;;;;;;;2.23;0.80;;;11.10;84.70;;;;;;6192180;23;19992;-85
2024/01/25 13:43:48;;;;;;;3.95;1.10;;;11.00;84.70;;;;;;6191326;23;19985;-85
2024/01/25 13:46:15;;;;;;;2.63;0.90;;;11.60;85.10;;;;;;6191139;23;20041;-84
2024/01/25 13:48:45;;;;;;;3.67;1.20;;;11.00;84.70;;;;;;6190715;23;19989;-85
2024/01/25 13:51:13;;;;;;;3.15;1.00;;;11.00;84.80;;;;;;6166921;23;19996;-85
2024/01/25 13:53:39;;;;;;;3.03;1.00;;;10.90;84.70;;;;;;6214622;23;19989;-85
2024/01/25 13:56:07;;;;;;;2.53;1.10;;;10.90;84.70;;;;;;6215684;23;20000;-85
2024/01/25 13:58:35;;;;;;;3.83;1.10;;;11.00;84.80;;;;;;6166396;23;19992;-84
2024/01/25 14:01:06;;;;;;;4.35;1.10;;;10.90;84.80;;;;;;6184228;23;20041;-85
2024/01/25 14:03:37;;;;;;;2.38;0.90;;;10.90;84.80;;;;;;6216419;23;19981;-85
2024/01/25 14:06:04;;;;;;;3.15;1.00;;;11.00;84.90;;;;;;6166222;23;19992;-85
2024/01/25 14:08:34;;;;;;;3.80;1.02;;;10.90;84.80;;;;;;6190993;23;19992;-85
2024/01/25 14:11:03;;;;;;;3.47;1.00;;;10.90;84.80;;;;;;6191516;23;20061;-85
2024/01/25 14:13:31;;;;;;;2.13;0.90;;;11.20;85.00;;;;;;6187138;23;19985;-85
2024/01/25 14:15:58;;;;;;;4.25;1.10;;;11.00;84.90;;;;;;6166582;23;20012;-85
2024/01/25 14:18:30;;;;;;;3.88;1.23;;;10.90;84.80;;;;;;6166564;23;19995;-85
2024/01/25 14:21:02;;;;;;;3.33;1.02;;;10.90;84.80;;;;;;6167763;23;19993;-85
2024/01/25 14:23:29;;;;;;;2.60;1.00;;;11.00;84.90;;;;;;6190940;23;19982;-85
2024/01/25 14:26:01;;;;;;;3.88;1.02;;;10.90;84.90;;;;;;6216362;23;19992;-85
2024/01/25 14:28:33;;;;;;;3.70;1.00;;;11.40;85.10;;;;;;6216187;23;19989;-85
2024/01/25 14:31:03;;;;;;;4.60;1.00;;;10.90;84.80;;;;;;6216184;23;19996;-85
2024/01/25 14:33:30;;;;;;;3.47;1.15;;;10.90;84.80;;;;;;6190551;23;20000;-85
2024/01/25 14:35:58;;;;;;;2.47;0.93;;;10.90;84.90;;;;;;6190115;23;19985;-86
2024/01/25 14:38:27;;;;;;;3.40;1.10;;;10.90;84.90;;;;;;6166411;23;20005;-84
2024/01/25 14:40:54;;;;;;;3.58;1.13;;;10.80;84.90;;;;;;6190572;23;19992;-85
2024/01/25 14:43:25;;;;;;;4.13;1.20;;;10.70;84.90;;;;;;6215970;23;20000;-85
2024/01/25 14:45:52;;;;;;;3.92;1.00;;;10.80;85.00;;;;;;6186974;23;20000;-85
2024/01/25 14:48:19;;;;;;;4.03;1.35;;;10.80;85.00;;;;;;6165679;23;19989;-85
2024/01/25 14:50:45;;;;;;;3.13;1.10;;;10.90;85.10;;;;;;6165573;23;19985;-85
2024/01/25 14:53:13;;;;;;;4.07;1.10;;;10.80;85.10;;;;;;6208663;23;19985;-84
2024/01/25 14:55:40;;;;;;;3.92;1.10;;;10.90;85.20;;;;;;6215549;23;20000;-85
2024/01/25 14:58:11;;;;;;;5.50;1.23;;;10.90;85.20;;;;;;6190138;23;20012;-85
2024/01/25 15:00:37;;;;;;;3.25;1.13;;;10.80;85.20;;;;;;6190210;23;19981;-85
2024/01/25 15:03:03;;;;;;;2.85;1.20;;;10.90;85.30;;;;;;6190299;23;19984;-85
2024/01/25 15:05:30;;;;;;;3.25;1.02;;;10.90;85.40;;;;;;6189046;23;19981;-85
2024/01/25 15:07:57;;;;;;;4.53;1.30;;;10.90;85.40;;;;;;6165610;23;19990;-85
2024/01/25 15:10:24;;;;;;;3.15;1.10;;;10.90;85.40;;;;;;6190236;23;19988;-85
2024/01/25 15:12:53;;;;;;;4.70;1.30;;;10.80;85.40;;;;;;6188603;23;19981;-85
2024/01/25 15:15:20;;;;;;;4.38;1.50;;;10.80;85.40;;;;;;6190293;23;19988;-85
2024/01/25 15:17:47;;;;;;;3.17;1.10;;;10.80;85.40;;;;;;6215331;23;20005;-85
2024/01/25 15:20:13;;;;;;;3.10;1.23;;;10.80;85.50;;;;;;6188180;23;20388;-85
2024/01/25 15:22:40;;;;;;;4.13;1.30;;;10.80;85.60;;;;;;6190142;23;20012;-85
2024/01/25 15:25:07;;;;;;;3.50;1.20;;;10.80;85.60;;;;;;6189665;23;20038;-85
2024/01/25 15:27:36;;;;;;;4.13;1.20;;;10.80;85.60;;;;;;6215756;23;19985;-85
2024/01/25 15:30:11;;;;;;;3.15;1.25;;;10.80;85.60;;;;;;6189439;23;20044;-85
2024/01/25 15:32:38;;;;;;;4.80;1.30;;;10.80;85.70;;;;;;6190197;23;19985;-85
2024/01/25 15:35:04;;;;;;;3.72;1.25;;;10.70;85.70;;;;;;6189939;23;19992;-85
2024/01/25 15:37:33;;;;;;;3.42;1.13;;;10.80;85.70;;;;;;6189614;23;20151;-85
2024/01/25 15:39:59;;;;;;;2.30;1.00;;;10.80;85.70;;;;;;6166066;23;20008;-85
2024/01/25 15:42:30;;;;;;;4.25;1.25;;;10.80;85.80;;;;;;6190029;23;19985;-85
2024/01/25 15:44:56;;;;;;;4.45;1.30;;;11.30;86.10;;;;;;6189909;23;20033;-85
2024/01/25 15:47:26;;;;;;;3.55;1.20;;;11.80;86.40;;;;;;6190852;23;20053;-85
2024/01/25 15:49:52;;;;;;;4.18;1.15;;;10.70;85.80;;;;;;6214087;23;20004;-85
2024/01/25 15:52:20;;;;;;;3.97;1.35;;;10.90;86.00;;;;;;6215315;23;19985;-84
2024/01/25 16:23:15;;;;;;;5.13;1.58;;;10.70;86.10;;;;;;6166404;23;20031;-85
2024/01/25 16:25:44;;;;;;;4.03;1.60;;;10.60;86.10;;;;;;6215070;23;19985;-85
2024/01/25 16:28:12;;;;;;;4.55;1.67;;;11.60;86.60;;;;;;6190294;23;20024;-85